createdAt,value
2022-08-30T00:01:06.593Z,100527.00
2022-08-30T00:03:45.532Z,100524.94
2022-08-30T00:06:14.838Z,100534.44
2022-08-30T00:08:42.921Z,100523.94
2022-08-30T00:11:13.964Z,100525.00
2022-08-30T00:13:43.205Z,100530.19
2022-08-30T00:16:12.365Z,100530.91
2022-08-30T00:18:40.536Z,100531.09
2022-08-30T00:21:07.792Z,100526.41
2022-08-30T00:23:35.189Z,100528.47
2022-08-30T00:26:02.677Z,100526.72
2022-08-30T00:28:30.283Z,100523.66
2022-08-30T00:30:57.411Z,100520.88
2022-08-30T00:33:24.304Z,100527.84
2022-08-30T00:35:51.135Z,100530.38
2022-08-30T00:38:18.396Z,100525.19
2022-08-30T00:40:46.130Z,100527.69
2022-08-30T00:43:19.501Z,100526.41
2022-08-30T00:45:47.145Z,100531.34
2022-08-30T00:48:14.087Z,100524.22
2022-08-30T00:50:44.576Z,100535.69
2022-08-30T00:53:17.152Z,100534.44
2022-08-30T00:55:44.936Z,100523.31
2022-08-30T00:58:19.947Z,100527.72
2022-08-30T01:00:51.816Z,100526.34
2022-08-30T01:03:18.868Z,100529.13
2022-08-30T01:05:46.704Z,100529.50
2022-08-30T01:08:17.392Z,100525.88
2022-08-30T01:10:44.803Z,100530.47
2022-08-30T01:13:13.899Z,100521.34
2022-08-30T01:15:42.989Z,100523.06
2022-08-30T01:18:11.609Z,100523.91
2022-08-30T01:21:10.270Z,100529.97
2022-08-30T01:23:42.036Z,100519.22
2022-08-30T01:26:10.313Z,100521.53
2022-08-30T01:28:39.929Z,100522.63
2022-08-30T01:31:08.132Z,100514.34
2022-08-30T01:33:40.233Z,100512.16
2022-08-30T01:36:13.146Z,100508.66
2022-08-30T01:38:46.059Z,100511.38
2022-08-30T01:41:12.824Z,100507.66
2022-08-30T01:43:39.848Z,100505.38
2022-08-30T01:46:07.744Z,100505.78
2022-08-30T01:48:34.865Z,100501.88
2022-08-30T01:51:02.668Z,100506.06
2022-08-30T01:53:29.944Z,100497.44
2022-08-30T01:55:56.860Z,100508.06
2022-08-30T01:58:23.850Z,100510.34
2022-08-30T02:00:51.572Z,100502.38
2022-08-30T02:03:19.423Z,100511.69
2022-08-30T02:05:46.416Z,100506.81
2022-08-30T02:08:13.384Z,100509.19
2022-08-30T02:10:40.158Z,100501.81
2022-08-30T02:13:06.928Z,100501.22
2022-08-30T02:15:41.558Z,100500.28
2022-08-30T02:18:10.780Z,100505.22
2022-08-30T02:20:39.904Z,100495.06
2022-08-30T02:23:06.771Z,100493.88
2022-08-30T02:25:33.652Z,100497.53
2022-08-30T02:28:00.770Z,100495.00
2022-08-30T02:30:28.241Z,100501.25
2022-08-30T02:32:55.161Z,100494.78
2022-08-30T02:35:22.214Z,100498.97
2022-08-30T02:37:49.064Z,100500.22
2022-08-30T02:40:16.171Z,100508.91
2022-08-30T02:42:43.165Z,100507.66
2022-08-30T02:45:10.985Z,100504.06
2022-08-30T02:47:37.791Z,100503.06
2022-08-30T02:50:06.579Z,100496.88
2022-08-30T02:52:33.376Z,100498.13
2022-08-30T02:55:00.236Z,100506.16
2022-08-30T02:57:27.212Z,100505.97
2022-08-30T02:59:54.004Z,100502.31
2022-08-30T03:02:22.203Z,100502.31
2022-08-30T03:04:50.170Z,100504.47
2022-08-30T03:07:17.300Z,100497.16
2022-08-30T03:09:44.250Z,100501.16
2022-08-30T03:12:12.287Z,100507.00
2022-08-30T03:14:39.554Z,100509.38
2022-08-30T03:17:15.379Z,100508.09
2022-08-30T03:19:44.041Z,100505.56
2022-08-30T03:22:11.728Z,100506.47
2022-08-30T03:24:38.807Z,100514.47
2022-08-30T03:27:05.871Z,100520.25
2022-08-30T03:29:32.974Z,100527.16
2022-08-30T03:31:59.819Z,100526.66
2022-08-30T03:34:27.607Z,100517.53
2022-08-30T03:36:55.616Z,100528.97
2022-08-30T03:39:24.001Z,100527.41
2022-08-30T03:41:51.873Z,100535.59
2022-08-30T03:44:19.276Z,100533.78
2022-08-30T03:46:46.628Z,100534.44
2022-08-30T03:49:13.647Z,100535.19
2022-08-30T03:51:40.607Z,100528.72
2022-08-30T03:54:07.617Z,100539.16
2022-08-30T03:56:34.672Z,100540.00
2022-08-30T03:59:01.623Z,100539.72
2022-08-30T04:01:28.540Z,100535.66
2022-08-30T04:03:56.663Z,100545.66
2022-08-30T04:06:23.854Z,100545.50
2022-08-30T04:08:51.551Z,100545.63
2022-08-30T04:11:18.606Z,100541.41
2022-08-30T04:13:45.417Z,100548.03
2022-08-30T04:16:12.653Z,100547.31
2022-08-30T04:18:40.065Z,100557.06
2022-08-30T04:21:09.489Z,100556.22
2022-08-30T04:23:38.652Z,100571.16
2022-08-30T04:26:05.878Z,100581.44
2022-08-30T04:28:33.985Z,100572.13
2022-08-30T04:31:01.674Z,100582.69
2022-08-30T04:33:28.709Z,100590.69
2022-08-30T04:35:55.516Z,100584.81
2022-08-30T04:38:23.477Z,100588.16
2022-08-30T04:40:52.746Z,100592.38
2022-08-30T04:43:19.505Z,100597.31
2022-08-30T04:45:46.720Z,100600.97
2022-08-30T04:48:13.753Z,100600.66
2022-08-30T04:50:42.772Z,100600.81
2022-08-30T04:53:09.700Z,100609.00
2022-08-30T04:55:37.456Z,100603.34
2022-08-30T04:58:05.970Z,100608.38
2022-08-30T05:00:32.977Z,100604.56
2022-08-30T05:03:00.693Z,100617.06
2022-08-30T05:05:39.847Z,100614.22
2022-08-30T05:08:08.652Z,100614.94
2022-08-30T05:10:39.192Z,100605.41
2022-08-30T05:13:06.032Z,100610.94
2022-08-30T05:15:33.609Z,100612.31
2022-08-30T05:18:00.430Z,100615.78
2022-08-30T05:20:27.296Z,100615.63
2022-08-30T05:22:54.354Z,100616.41
2022-08-30T05:25:24.847Z,100617.84
2022-08-30T05:27:52.810Z,100616.09
2022-08-30T05:30:21.224Z,100615.66
2022-08-30T05:32:48.207Z,100611.53
2022-08-30T05:35:16.332Z,100610.78
2022-08-30T05:37:43.880Z,100611.53
2022-08-30T05:40:12.136Z,100609.47
2022-08-30T05:42:41.456Z,100622.88
2022-08-30T05:45:10.112Z,100613.84
2022-08-30T05:47:37.917Z,100618.34
2022-08-30T05:50:07.088Z,100623.31
2022-08-30T05:52:39.074Z,100622.22
2022-08-30T05:55:07.777Z,100625.13
2022-08-30T05:57:37.020Z,100631.41
2022-08-30T06:00:10.940Z,100632.25
2022-08-30T06:02:37.762Z,100628.25
2022-08-30T06:05:05.172Z,100629.09
2022-08-30T06:07:33.071Z,100629.38
2022-08-30T06:09:59.845Z,100624.69
2022-08-30T06:12:27.185Z,100634.47
2022-08-30T06:14:54.273Z,100627.38
2022-08-30T06:17:21.479Z,100636.81
2022-08-30T06:19:48.446Z,100628.31
2022-08-30T06:22:15.386Z,100629.50
2022-08-30T06:24:57.111Z,100633.28
2022-08-30T06:27:24.981Z,100635.84
2022-08-30T06:29:52.902Z,100636.53
2022-08-30T06:32:19.734Z,100630.56
2022-08-30T06:34:46.838Z,100627.59
2022-08-30T06:37:21.976Z,100627.16
2022-08-30T06:39:58.093Z,100618.44
2022-08-30T06:42:31.639Z,100628.84
2022-08-30T06:45:02.993Z,100627.88
2022-08-30T06:47:37.603Z,100627.00
2022-08-30T06:50:05.081Z,100627.59
2022-08-30T06:52:32.530Z,100625.63
2022-08-30T06:54:59.392Z,100630.38
2022-08-30T18:49:32.175Z,100423.63
2022-08-30T18:52:01.833Z,100414.75
2022-08-30T18:54:29.063Z,100423.03
2022-08-30T18:56:55.902Z,100422.91
2022-08-30T18:59:22.870Z,100429.47
2022-08-30T19:02:02.478Z,100428.81
2022-08-30T19:04:35.796Z,100420.41
2022-08-30T19:07:07.707Z,100421.09
2022-08-30T19:09:35.441Z,100411.91
2022-08-30T19:12:03.743Z,100422.84
2022-08-30T19:14:36.539Z,100419.38
2022-08-30T19:17:06.893Z,100424.81
2022-08-30T19:19:35.009Z,100418.78
2022-08-30T19:22:03.291Z,100420.50
2022-08-30T19:24:30.232Z,100416.97
2022-08-30T19:26:57.040Z,100422.78
2022-08-30T19:29:24.004Z,100427.69
2022-08-30T19:31:51.899Z,100428.56
2022-08-30T19:34:19.231Z,100428.50
2022-08-30T19:36:46.234Z,100425.31
2022-08-30T19:39:14.331Z,100427.09
2022-08-30T19:41:41.844Z,100429.97
2022-08-30T19:44:09.323Z,100431.66
2022-08-30T19:46:36.912Z,100428.00
2022-08-30T19:49:07.172Z,100420.94
2022-08-30T19:51:34.431Z,100432.88
2022-08-30T19:54:02.972Z,100423.63
2022-08-30T19:56:30.227Z,100427.84
2022-08-30T19:58:57.576Z,100423.63
2022-08-30T20:01:33.264Z,100425.19
2022-08-30T20:04:02.077Z,100424.31
2022-08-30T20:06:30.685Z,100432.72
2022-08-30T20:08:58.490Z,100438.94
2022-08-30T20:11:28.771Z,100439.63
2022-08-30T20:13:56.427Z,100440.44
2022-08-30T20:16:33.037Z,100441.47
2022-08-30T20:19:06.429Z,100433.94
2022-08-30T20:21:34.007Z,100428.53
2022-08-30T20:24:04.082Z,100432.75
2022-08-30T20:26:34.376Z,100428.19
2022-08-30T20:29:03.114Z,100427.34
2022-08-30T20:31:30.429Z,100421.81
2022-08-30T20:33:57.751Z,100416.75
2022-08-30T20:36:24.878Z,100417.78
2022-08-30T20:38:51.905Z,100418.78
2022-08-30T20:41:20.345Z,100415.94
2022-08-30T20:43:48.770Z,100410.88
2022-08-30T20:46:18.962Z,100409.53
2022-08-30T20:48:47.660Z,100411.41
2022-08-30T20:51:20.091Z,100412.75
2022-08-30T20:53:49.211Z,100414.56
2022-08-30T20:56:18.974Z,100417.22
2022-08-30T20:58:45.958Z,100422.69
2022-08-30T21:01:13.923Z,100421.75
2022-08-30T21:03:41.308Z,100427.44
2022-08-30T21:06:08.300Z,100426.22
2022-08-30T21:08:35.262Z,100427.59
2022-08-30T21:11:02.148Z,100424.56
2022-08-30T21:13:30.309Z,100425.09
2022-08-30T21:16:00.572Z,100427.25
2022-08-30T21:18:33.106Z,100426.59
2022-08-30T21:21:22.101Z,100429.25
2022-08-30T21:23:49.941Z,100429.63
2022-08-30T21:26:17.990Z,100425.06
2022-08-30T21:28:55.631Z,100420.81
2022-08-30T21:31:24.749Z,100422.66
2022-08-30T21:33:53.366Z,100421.84
2022-08-30T21:36:40.621Z,100415.09
2022-08-30T21:39:08.185Z,100417.69
2022-08-30T21:41:37.407Z,100420.97
2022-08-30T21:44:08.885Z,100423.00
2022-08-30T21:46:36.128Z,100425.25
2022-08-30T21:49:05.948Z,100426.78
2022-08-30T21:51:36.221Z,100431.72
2022-08-30T21:54:07.113Z,100431.31
2022-08-30T21:56:34.424Z,100429.09
2022-08-30T21:59:01.423Z,100442.00
2022-08-30T22:01:30.052Z,100436.97
2022-08-30T22:04:00.391Z,100436.28
2022-08-30T22:06:30.826Z,100435.00
2022-08-30T22:09:01.135Z,100440.28
2022-08-30T22:11:29.272Z,100434.78
2022-08-30T22:13:56.144Z,100431.69
2022-08-30T22:16:23.790Z,100423.63
2022-08-30T22:18:51.633Z,100428.81
2022-08-30T22:21:22.341Z,100420.69
2022-08-30T22:23:49.430Z,100423.06
2022-08-30T22:26:18.006Z,100420.97
2022-08-30T22:28:45.110Z,100422.00
2022-08-30T22:31:16.960Z,100420.69
2022-08-30T22:33:45.072Z,100419.66
2022-08-30T22:36:18.592Z,100426.03
2022-08-30T22:38:45.676Z,100428.72
2022-08-30T22:41:16.590Z,100442.25
2022-08-30T22:43:43.832Z,100456.53
2022-08-30T22:46:12.022Z,100441.50
2022-08-30T22:48:41.412Z,100433.72
2022-08-30T22:51:08.548Z,100438.97
2022-08-30T22:53:36.072Z,100442.63
2022-08-30T22:56:30.772Z,100435.91
2022-08-30T22:58:58.278Z,100432.41
2022-08-30T23:01:29.780Z,100425.72
2022-08-30T23:03:58.278Z,100428.44
2022-08-30T23:06:25.735Z,100422.22
2022-08-30T23:08:52.655Z,100417.00
2022-08-30T23:11:19.931Z,100410.81
2022-08-30T23:13:47.464Z,100411.47
2022-08-30T23:16:15.632Z,100411.94
2022-08-30T23:18:44.567Z,100410.47
2022-08-30T23:21:13.530Z,100409.25
2022-08-30T23:23:59.602Z,100410.59
2022-08-30T23:26:45.114Z,100415.22
2022-08-30T23:29:31.404Z,100401.34
2022-08-30T23:32:17.341Z,100408.53
2022-08-30T23:35:02.694Z,100408.59
2022-08-30T23:37:48.596Z,100406.28
2022-08-30T23:40:40.407Z,100404.91
2022-08-30T23:43:27.421Z,100408.91
2022-08-30T23:46:19.263Z,100412.63
2022-08-30T23:49:07.008Z,100403.97
2022-08-30T23:51:52.462Z,100409.41
2022-08-30T23:54:38.279Z,100407.31
2022-08-30T23:57:24.163Z,100409.00
